createdAt,value
2019-05-29T00:00:22.223Z,99567.39
2019-05-29T00:02:30.164Z,99571.45
2019-05-29T00:04:37.596Z,99575.28
2019-05-29T00:06:45.502Z,99565.27
2019-05-29T00:08:53.103Z,99576.13
2019-05-29T00:11:00.665Z,99575.92
2019-05-29T00:13:08.213Z,99575.80
2019-05-29T00:15:16.359Z,99581.66
2019-05-29T00:17:23.776Z,99580.62
2019-05-29T00:19:31.370Z,99587.96
2019-05-29T00:21:38.903Z,99587.96
2019-05-29T00:23:46.363Z,99595.94
2019-05-29T00:25:53.991Z,99596.91
2019-05-29T00:28:01.449Z,99599.02
2019-05-29T00:30:09.167Z,99596.65
2019-05-29T00:32:17.185Z,99597.03
2019-05-29T00:34:24.669Z,99589.05
2019-05-29T00:36:32.239Z,99588.59
2019-05-29T00:38:40.076Z,99585.69
2019-05-29T00:40:47.621Z,99590.88
2019-05-29T00:42:55.075Z,99589.55
2019-05-29T00:45:02.557Z,99589.92
2019-05-29T00:47:10.090Z,99591.50
2019-05-29T00:49:18.052Z,99585.22
2019-05-29T00:51:25.627Z,99585.55
2019-05-29T00:53:33.100Z,99588.63
2019-05-29T00:55:40.942Z,99593.95
2019-05-29T00:57:48.282Z,99592.98
2019-05-29T00:59:55.690Z,99595.06
2019-05-29T01:02:03.370Z,99604.50
2019-05-29T01:04:11.526Z,99607.37
2019-05-29T01:06:20.155Z,99603.25
2019-05-29T01:08:27.697Z,99601.20
2019-05-29T01:10:35.300Z,99595.69
2019-05-29T01:12:42.776Z,99597.70
2019-05-29T01:14:50.800Z,99603.92
2019-05-29T01:16:58.366Z,99602.64
2019-05-29T01:19:23.663Z,99600.69
2019-05-29T01:21:32.399Z,99603.84
2019-05-29T01:23:40.058Z,99604.26
2019-05-29T01:25:47.705Z,99612.03
2019-05-29T01:27:55.201Z,99613.92
2019-05-29T01:30:02.588Z,99627.19
2019-05-29T01:32:10.219Z,99618.91
2019-05-29T01:34:17.714Z,99625.19
2019-05-29T01:36:25.152Z,99623.86
2019-05-29T01:38:32.567Z,99629.14
2019-05-29T01:40:39.987Z,99630.86
2019-05-29T01:42:49.870Z,99618.59
2019-05-29T01:45:07.306Z,99627.67
2019-05-29T01:47:05.724Z,99633.50
2019-05-29T01:49:13.091Z,99647.61
2019-05-29T01:51:21.753Z,99636.84
2019-05-29T01:53:29.263Z,99645.30
2019-05-29T01:55:36.615Z,99653.76
2019-05-29T01:57:43.997Z,99652.88
2019-05-29T01:59:51.460Z,99655.63
2019-05-29T02:01:58.998Z,99658.47
2019-05-29T02:04:06.503Z,99662.09
2019-05-29T02:06:14.102Z,99666.89
2019-05-29T02:08:22.106Z,99668.41
2019-05-29T02:10:29.900Z,99676.30
2019-05-29T02:12:37.367Z,99673.99
2019-05-29T02:14:44.793Z,99684.05
2019-05-29T02:16:52.212Z,99678.73
2019-05-29T02:18:59.564Z,99687.70
2019-05-29T02:21:07.216Z,99688.97
2019-05-29T02:23:15.745Z,99689.46
2019-05-29T02:25:24.426Z,99697.37
2019-05-29T02:27:31.830Z,99695.18
2019-05-29T02:29:39.295Z,99697.72
2019-05-29T02:31:46.665Z,99700.13
2019-05-29T02:33:54.225Z,99699.27
2019-05-29T02:36:01.551Z,99711.80
2019-05-29T02:38:09.078Z,99709.48
2019-05-29T02:40:18.825Z,99714.59
2019-05-29T02:42:27.163Z,99713.48
2019-05-29T02:44:34.806Z,99715.68
2019-05-29T02:46:42.258Z,99720.52
2019-05-29T02:48:49.648Z,99728.10
2019-05-29T02:50:57.369Z,99720.16
2019-05-29T02:53:04.761Z,99729.20
2019-05-29T02:55:12.756Z,99734.25
2019-05-29T02:57:20.737Z,99725.84
2019-05-29T02:59:29.864Z,99737.98
2019-05-29T03:01:37.358Z,99742.47
2019-05-29T03:03:44.780Z,99746.31
2019-05-29T03:05:53.290Z,99743.89
2019-05-29T03:08:00.751Z,99757.28
2019-05-29T03:10:09.944Z,99755.82
2019-05-29T03:12:17.295Z,99758.59
2019-05-29T03:14:25.206Z,99761.27
2019-05-29T03:16:34.664Z,99761.03
2019-05-29T03:18:41.941Z,99768.62
2019-05-29T03:20:49.543Z,99768.12
2019-05-29T03:22:56.877Z,99768.82
2019-05-29T03:25:04.255Z,99782.95
2019-05-29T03:27:11.649Z,99790.89
2019-05-29T03:29:19.114Z,99797.99
2019-05-29T03:31:30.004Z,99808.46
2019-05-29T03:33:45.092Z,99806.27
2019-05-29T03:35:48.170Z,99812.44
2019-05-29T03:37:54.235Z,99825.34
2019-05-29T03:40:01.713Z,99828.13
2019-05-29T03:42:09.086Z,99846.79
2019-05-29T03:44:16.539Z,99844.62
2019-05-29T03:46:31.409Z,99850.84
2019-05-29T03:48:34.427Z,99857.50
2019-05-29T03:50:42.159Z,99869.74
2019-05-29T03:52:49.725Z,99878.53
2019-05-29T03:54:57.248Z,99884.80
2019-05-29T03:57:04.731Z,99890.15
2019-05-29T03:59:12.261Z,99894.67
2019-05-29T04:01:19.633Z,99901.13
2019-05-29T04:03:28.497Z,99899.91
2019-05-29T04:05:37.951Z,99909.01
2019-05-29T04:07:45.583Z,99911.52
2019-05-29T04:09:53.406Z,99922.08
2019-05-29T04:12:01.040Z,99926.38
2019-05-29T04:14:08.518Z,99933.30
2019-05-29T04:16:16.991Z,99925.16
2019-05-29T04:18:29.585Z,99936.70
2019-05-29T04:20:39.017Z,99940.87
2019-05-29T04:22:48.257Z,99949.45
2019-05-29T04:24:57.778Z,99955.06
2019-05-29T04:27:08.337Z,99949.34
2019-05-29T04:29:16.433Z,99960.90
2019-05-29T04:31:23.953Z,99953.69
2019-05-29T04:33:32.585Z,99959.32
2019-05-29T04:35:40.784Z,99963.80
2019-05-29T04:37:48.397Z,99969.94
2019-05-29T04:39:56.273Z,99969.27
2019-05-29T04:42:04.337Z,99970.58
2019-05-29T04:44:11.861Z,99971.28
2019-05-29T04:46:19.603Z,99981.68
2019-05-29T04:48:29.345Z,99987.25
2019-05-29T04:50:39.745Z,99999.84
2019-05-29T04:52:46.686Z,100008.66
2019-05-29T04:54:54.229Z,100014.05
2019-05-29T04:57:01.737Z,100017.48
2019-05-29T04:59:09.317Z,100021.47
2019-05-29T05:01:16.709Z,100022.29
2019-05-29T05:03:24.229Z,100028.49
2019-05-29T05:05:33.267Z,100034.06
2019-05-29T05:07:40.855Z,100034.87
2019-05-29T05:09:48.284Z,100039.69
2019-05-29T05:11:56.928Z,100044.29
2019-05-29T05:14:05.392Z,100051.33
2019-05-29T05:16:12.992Z,100055.29
2019-05-29T05:18:20.502Z,100065.58
2019-05-29T05:20:27.943Z,100067.55
2019-05-29T05:22:36.292Z,100071.58
2019-05-29T05:24:44.704Z,100079.92
2019-05-29T05:26:52.236Z,100085.16
2019-05-29T05:28:59.984Z,100088.39
2019-05-29T05:31:07.845Z,100087.20
2019-05-29T05:33:15.370Z,100096.19
2019-05-29T05:35:23.002Z,100112.81
2019-05-29T05:37:30.658Z,100104.61
2019-05-29T05:39:39.076Z,100103.91
2019-05-29T05:41:46.702Z,100108.34
2019-05-29T05:43:54.209Z,100103.73
2019-05-29T05:46:01.802Z,100116.61
2019-05-29T05:48:09.303Z,100117.48
2019-05-29T05:50:18.625Z,100114.72
2019-05-29T05:52:26.492Z,100131.61
2019-05-29T05:54:35.321Z,100130.55
2019-05-29T05:56:43.458Z,100132.56
2019-05-29T05:58:51.133Z,100140.50
2019-05-29T06:00:58.728Z,100146.86
2019-05-29T06:03:06.837Z,100152.69
2019-05-29T06:05:15.021Z,100156.61
2019-05-29T06:07:22.864Z,100160.41
2019-05-29T06:09:32.660Z,100165.81
2019-05-29T06:11:40.513Z,100165.63
2019-05-29T06:13:48.271Z,100170.67
2019-05-29T06:15:55.765Z,100171.74
2019-05-29T06:18:19.995Z,100176.84
2019-05-29T06:20:13.064Z,100171.61
2019-05-29T06:22:21.094Z,100176.45
2019-05-29T06:24:29.853Z,100185.53
2019-05-29T06:26:37.353Z,100175.03
2019-05-29T06:28:44.695Z,100187.24
2019-05-29T06:30:52.285Z,100184.14
2019-05-29T06:32:59.649Z,100198.63
2019-05-29T06:35:08.386Z,100202.22
2019-05-29T06:37:15.783Z,100204.58
2019-05-29T06:39:23.217Z,100210.59
2019-05-29T06:41:30.717Z,100212.94
2019-05-29T06:43:38.068Z,100216.93
2019-05-29T06:45:45.541Z,100224.98
2019-05-29T06:47:53.034Z,100226.69
2019-05-29T06:50:00.483Z,100224.98
2019-05-29T06:52:09.300Z,100230.45
2019-05-29T06:54:16.809Z,100233.57
2019-05-29T06:56:24.229Z,100240.27
2019-05-29T06:58:31.681Z,100241.87
2019-05-29T07:00:39.861Z,100249.73
2019-05-29T07:02:48.205Z,100249.14
2019-05-29T07:04:55.740Z,100249.97
2019-05-29T07:07:03.164Z,100259.06
2019-05-29T07:09:10.603Z,100254.61
2019-05-29T07:11:18.077Z,100258.85
2019-05-29T07:13:25.569Z,100272.00
2019-05-29T07:15:33.194Z,100276.60
2019-05-29T07:17:40.668Z,100275.23
2019-05-29T07:20:00.104Z,100281.26
2019-05-29T07:21:57.339Z,100285.38
2019-05-29T07:24:04.719Z,100298.73
2019-05-29T07:26:12.154Z,100298.05
2019-05-29T07:28:19.606Z,100300.52
2019-05-29T07:30:27.121Z,100309.86
2019-05-29T07:32:34.558Z,100312.59
2019-05-29T07:35:01.316Z,100312.14
2019-05-29T07:36:51.100Z,100317.98
2019-05-29T07:39:03.598Z,100320.71
2019-05-29T07:41:07.667Z,100326.22
2019-05-29T07:43:15.198Z,100327.92
2019-05-29T07:45:23.007Z,100326.90
2019-05-29T07:47:30.527Z,100334.21
2019-05-29T07:49:40.894Z,100341.19
2019-05-29T07:51:47.198Z,100347.60
2019-05-29T07:53:55.056Z,100345.63
2019-05-29T07:56:02.425Z,100344.73
2019-05-29T07:58:09.872Z,100346.59
2019-05-29T08:00:17.944Z,100351.14
2019-05-29T08:02:25.350Z,100361.89
2019-05-29T08:04:32.720Z,100360.00
2019-05-29T08:06:47.792Z,100366.19
2019-05-29T08:08:49.646Z,100362.87
2019-05-29T08:10:57.242Z,100363.44
2019-05-29T08:13:04.842Z,100362.31
2019-05-29T08:15:12.535Z,100365.41
2019-05-29T08:17:20.119Z,100371.85
2019-05-29T08:19:28.530Z,100368.36
2019-05-29T08:21:35.967Z,100386.25
2019-05-29T08:23:44.346Z,100380.16
2019-05-29T08:25:51.937Z,100392.61
2019-05-29T08:27:59.353Z,100388.39
2019-05-29T08:30:09.666Z,100399.42
2019-05-29T08:32:17.071Z,100404.80
2019-05-29T08:34:24.465Z,100410.48
2019-05-29T08:36:31.880Z,100405.58
2019-05-29T08:38:39.344Z,100409.91
2019-05-29T08:40:47.437Z,100412.36
2019-05-29T08:42:55.144Z,100411.72
2019-05-29T08:45:02.557Z,100414.08
2019-05-29T08:47:11.007Z,100420.52
2019-05-29T08:49:18.675Z,100418.06
2019-05-29T08:51:26.223Z,100415.79
2019-05-29T08:53:34.558Z,100418.26
2019-05-29T08:55:42.159Z,100422.78
2019-05-29T08:57:50.510Z,100430.53
2019-05-29T08:59:57.933Z,100432.97
2019-05-29T09:02:05.515Z,100434.61
2019-05-29T09:04:13.035Z,100446.89
2019-05-29T09:06:20.530Z,100446.98
2019-05-29T09:08:28.080Z,100448.83
2019-05-29T09:10:35.627Z,100452.27
2019-05-29T09:12:47.067Z,100456.97
2019-05-29T09:14:52.559Z,100457.64
2019-05-29T09:17:00.308Z,100462.45
2019-05-29T09:19:07.828Z,100470.03
2019-05-29T09:21:17.438Z,100472.11
2019-05-29T09:23:25.005Z,100475.69
2019-05-29T09:25:32.653Z,100471.91
2019-05-29T09:27:40.172Z,100479.45
2019-05-29T09:29:47.615Z,100477.97
2019-05-29T09:31:55.058Z,100479.77
2019-05-29T09:34:02.583Z,100480.53
2019-05-29T09:36:10.017Z,100485.54
2019-05-29T09:38:18.778Z,100485.70
2019-05-29T09:40:26.453Z,100486.47
2019-05-29T09:42:33.946Z,100497.25
2019-05-29T09:44:41.357Z,100498.96
2019-05-29T09:46:48.917Z,100498.41
2019-05-29T09:48:56.404Z,100500.77
2019-05-29T09:51:20.256Z,100503.80
2019-05-29T09:53:13.136Z,100510.70
2019-05-29T09:55:20.992Z,100517.69
2019-05-29T09:57:28.480Z,100515.44
2019-05-29T09:59:35.916Z,100523.17
2019-05-29T10:01:43.397Z,100520.89
2019-05-29T10:03:51.011Z,100527.34
2019-05-29T10:05:59.482Z,100525.09
2019-05-29T10:08:07.200Z,100535.28
2019-05-29T10:10:15.982Z,100534.92
2019-05-29T10:12:23.489Z,100537.17
2019-05-29T10:14:30.883Z,100544.08
2019-05-29T10:16:38.523Z,100551.33
2019-05-29T10:18:46.055Z,100555.02
2019-05-29T10:20:54.791Z,100558.67
2019-05-29T10:23:03.464Z,100556.79
2019-05-29T10:25:12.655Z,100566.04
2019-05-29T10:27:20.072Z,100561.30
2019-05-29T10:29:27.716Z,100570.17
2019-05-29T10:31:35.213Z,100571.75
2019-05-29T10:33:43.846Z,100574.41
2019-05-29T10:35:55.298Z,100576.34
2019-05-29T10:38:00.911Z,100577.40
2019-05-29T10:40:09.435Z,100591.88
2019-05-29T10:42:20.526Z,100586.94
2019-05-29T10:44:26.139Z,100589.52
2019-05-29T10:46:33.664Z,100584.21
2019-05-29T10:48:41.285Z,100584.97
2019-05-29T10:50:50.984Z,100593.13
2019-05-29T10:52:58.121Z,100589.03
2019-05-29T10:55:06.460Z,100587.47
2019-05-29T10:57:13.932Z,100587.27
2019-05-29T10:59:21.434Z,100586.52
2019-05-29T11:01:28.846Z,100596.26
2019-05-29T11:03:36.346Z,100593.36
2019-05-29T11:05:43.837Z,100595.02
2019-05-29T11:07:51.896Z,100599.95
2019-05-29T11:09:59.712Z,100597.95
2019-05-29T11:12:07.276Z,100599.55
2019-05-29T11:14:14.935Z,100603.08
2019-05-29T11:16:22.429Z,100601.67
2019-05-29T11:18:29.967Z,100599.22
2019-05-29T11:20:37.691Z,100607.33
2019-05-29T11:22:45.252Z,100612.18
2019-05-29T11:24:54.007Z,100612.83
2019-05-29T11:27:01.689Z,100614.55
2019-05-29T11:29:09.339Z,100615.84
2019-05-29T11:31:17.285Z,100621.89
2019-05-29T11:33:24.783Z,100621.70
2019-05-29T11:35:32.393Z,100632.68
2019-05-29T11:37:39.857Z,100628.31
2019-05-29T11:39:47.318Z,100630.31
2019-05-29T11:41:54.853Z,100629.84
2019-05-29T11:44:03.489Z,100627.39
2019-05-29T11:46:11.015Z,100627.42
2019-05-29T11:48:18.424Z,100626.69
2019-05-29T11:50:25.941Z,100625.16
2019-05-29T11:52:42.598Z,100629.52
2019-05-29T11:54:42.974Z,100621.77
2019-05-29T11:56:51.850Z,100622.68
2019-05-29T11:58:59.601Z,100639.19
2019-05-29T12:01:07.516Z,100633.88
2019-05-29T12:03:14.967Z,100636.53
2019-05-29T12:05:22.842Z,100633.30
2019-05-29T12:07:30.249Z,100638.23
2019-05-29T12:09:37.850Z,100635.30
2019-05-29T12:11:46.558Z,100640.10
2019-05-29T12:13:54.408Z,100635.48
2019-05-29T12:16:04.954Z,100637.48
2019-05-29T12:18:23.602Z,100633.11
2019-05-29T12:20:28.024Z,100629.69
2019-05-29T12:22:31.971Z,100645.30
2019-05-29T12:24:40.827Z,100647.79
2019-05-29T12:26:48.357Z,100647.79
2019-05-29T12:29:03.676Z,100644.75
2019-05-29T12:31:05.225Z,100655.56
2019-05-29T12:33:12.688Z,100653.20
2019-05-29T12:35:20.399Z,100663.23
2019-05-29T12:37:27.972Z,100664.25
2019-05-29T12:39:35.529Z,100662.84
2019-05-29T12:41:42.959Z,100660.86
2019-05-29T12:43:50.380Z,100662.38
2019-05-29T12:45:57.936Z,100667.20
2019-05-29T12:48:12.470Z,100677.42
2019-05-29T12:50:16.820Z,100672.28
2019-05-29T12:52:26.205Z,100674.55
2019-05-29T12:54:34.360Z,100678.94
2019-05-29T12:56:43.759Z,100677.88
2019-05-29T12:58:54.156Z,100681.00
2019-05-29T13:01:04.966Z,100682.34
2019-05-29T13:03:12.506Z,100683.00
2019-05-29T13:05:22.825Z,100687.26
2019-05-29T13:07:35.036Z,100689.55
2019-05-29T13:09:44.298Z,100683.11
2019-05-29T13:11:51.939Z,100688.69
2019-05-29T13:14:00.587Z,100691.05
2019-05-29T13:16:09.323Z,100689.72
2019-05-29T13:18:17.346Z,100685.17
2019-05-29T13:20:26.137Z,100684.13
2019-05-29T13:22:33.926Z,100688.56
2019-05-29T13:24:41.936Z,100690.64
2019-05-29T13:26:51.114Z,100694.89
2019-05-29T13:29:01.757Z,100698.40
2019-05-29T13:31:09.261Z,100698.22
2019-05-29T13:33:18.963Z,100693.84
2019-05-29T13:35:26.934Z,100684.93
2019-05-29T13:37:34.920Z,100688.97
2019-05-29T13:39:42.718Z,100690.56
2019-05-29T13:41:50.311Z,100693.19
2019-05-29T13:44:00.375Z,100698.71
2019-05-29T13:46:08.029Z,100697.41
2019-05-29T13:48:16.433Z,100700.73
2019-05-29T13:50:26.562Z,100698.53
2019-05-29T13:52:37.612Z,100700.43
2019-05-29T13:54:48.603Z,100699.67
2019-05-29T13:56:56.113Z,100699.59
2019-05-29T13:59:04.890Z,100701.76
2019-05-29T14:01:14.381Z,100700.22
2019-05-29T14:03:42.177Z,100702.52
2019-05-29T14:05:50.631Z,100702.60
2019-05-29T14:07:58.585Z,100706.10
2019-05-29T14:10:07.841Z,100707.25
2019-05-29T14:12:17.615Z,100705.52
2019-05-29T14:14:25.362Z,100701.69
2019-05-29T14:16:33.361Z,100701.99
2019-05-29T14:18:41.146Z,100704.64
2019-05-29T14:20:48.772Z,100701.55
2019-05-29T14:22:58.139Z,100700.79
2019-05-29T14:25:09.670Z,100703.84
2019-05-29T14:27:17.337Z,100712.64
2019-05-29T14:29:24.918Z,100707.57
2019-05-29T14:31:32.491Z,100709.95
2019-05-29T14:33:40.480Z,100703.19
2019-05-29T14:35:48.182Z,100707.39
2019-05-29T14:37:56.955Z,100702.69
2019-05-29T14:40:05.624Z,100710.88
2019-05-29T14:42:13.227Z,100714.69
2019-05-29T14:44:20.898Z,100712.16
2019-05-29T14:46:28.740Z,100713.08
2019-05-29T14:48:36.376Z,100716.61
2019-05-29T14:50:44.144Z,100719.36
2019-05-29T14:52:51.549Z,100721.98
2019-05-29T14:54:59.141Z,100716.72
2019-05-29T14:57:17.252Z,100724.77
2019-05-29T14:59:15.947Z,100730.34
2019-05-29T15:01:23.542Z,100738.35
2019-05-29T15:03:31.115Z,100735.04
2019-05-29T15:05:38.592Z,100734.11
2019-05-29T15:07:46.191Z,100735.54
2019-05-29T15:09:53.701Z,100737.84
2019-05-29T15:12:01.054Z,100745.23
2019-05-29T15:14:08.569Z,100745.81
2019-05-29T15:16:16.283Z,100741.71
2019-05-29T15:18:23.707Z,100752.19
2019-05-29T15:20:31.112Z,100749.44
2019-05-29T15:22:38.581Z,100754.97
2019-05-29T15:25:00.867Z,100753.16
2019-05-29T15:26:55.191Z,100762.53
2019-05-29T15:29:02.597Z,100762.63
2019-05-29T15:31:10.447Z,100763.32
2019-05-29T15:33:18.037Z,100766.06
2019-05-29T15:35:26.539Z,100773.64
2019-05-29T15:37:33.998Z,100767.76
2019-05-29T15:39:41.571Z,100763.30
2019-05-29T15:41:49.467Z,100775.81
2019-05-29T15:43:56.910Z,100776.39
2019-05-29T15:46:04.340Z,100784.75
2019-05-29T15:48:13.017Z,100782.27
2019-05-29T15:50:20.892Z,100794.04
2019-05-29T15:52:28.679Z,100784.83
2019-05-29T15:54:36.272Z,100794.97
2019-05-29T15:56:43.998Z,100791.95
2019-05-29T15:58:51.486Z,100797.92
2019-05-29T16:00:58.990Z,100799.25
2019-05-29T16:03:07.969Z,100798.41
2019-05-29T16:05:19.170Z,100798.87
2019-05-29T16:07:27.177Z,100798.30
2019-05-29T16:09:34.591Z,100803.97
2019-05-29T16:11:44.373Z,100806.34
2019-05-29T16:13:52.280Z,100804.84
2019-05-29T16:16:01.225Z,100811.30
2019-05-29T16:18:21.969Z,100811.38
2019-05-29T16:20:22.714Z,100811.47
2019-05-29T16:22:30.418Z,100814.61
2019-05-29T16:24:37.818Z,100812.62
2019-05-29T16:26:45.406Z,100821.91
2019-05-29T16:28:52.975Z,100816.15
2019-05-29T16:31:00.489Z,100815.66
2019-05-29T16:33:08.576Z,100826.02
2019-05-29T16:35:19.606Z,100827.22
2019-05-29T16:37:27.671Z,100824.29
2019-05-29T16:39:35.224Z,100826.46
2019-05-29T16:41:42.707Z,100823.23
2019-05-29T16:43:50.655Z,100818.05
2019-05-29T16:45:58.841Z,100826.58
2019-05-29T16:48:07.109Z,100829.33
2019-05-29T16:50:17.255Z,100827.52
2019-05-29T16:52:24.731Z,100825.91
2019-05-29T16:54:32.425Z,100833.05
2019-05-29T16:56:40.125Z,100827.81
2019-05-29T16:58:47.663Z,100838.25
2019-05-29T17:00:55.356Z,100836.25
2019-05-29T17:03:03.306Z,100839.09
2019-05-29T17:05:13.666Z,100847.15
2019-05-29T17:07:22.371Z,100838.42
2019-05-29T17:09:30.077Z,100851.13
2019-05-29T17:11:37.721Z,100855.51
2019-05-29T17:13:45.356Z,100854.18
2019-05-29T17:15:52.998Z,100860.05
2019-05-29T17:18:00.611Z,100861.85
2019-05-29T17:20:09.499Z,100864.78
2019-05-29T17:22:17.074Z,100871.14
2019-05-29T17:24:25.186Z,100875.20
2019-05-29T17:26:32.764Z,100878.82
2019-05-29T17:28:40.327Z,100880.72
2019-05-29T17:30:47.982Z,100877.51
2019-05-29T17:32:55.718Z,100877.51
2019-05-29T17:35:03.219Z,100882.98
2019-05-29T17:37:10.859Z,100882.22
2019-05-29T17:39:19.917Z,100890.55
2019-05-29T17:41:27.564Z,100884.87
2019-05-29T17:43:35.158Z,100896.94
2019-05-29T17:45:43.709Z,100891.12
2019-05-29T17:47:51.440Z,100897.19
2019-05-29T17:50:01.183Z,100900.04
2019-05-29T17:52:08.827Z,100896.91
2019-05-29T17:54:17.773Z,100897.47
2019-05-29T17:56:35.795Z,100903.06
2019-05-29T17:58:34.741Z,100905.55
2019-05-29T18:00:42.671Z,100904.98
2019-05-29T18:02:52.359Z,100908.28
2019-05-29T18:04:59.831Z,100906.88
2019-05-29T18:07:07.467Z,100913.67
2019-05-29T18:09:15.199Z,100915.48
2019-05-29T18:11:23.334Z,100925.24
2019-05-29T18:13:31.611Z,100929.02
2019-05-29T18:15:39.201Z,100936.30
2019-05-29T18:17:47.074Z,100934.12
2019-05-29T18:19:54.563Z,100937.22
2019-05-29T18:22:02.347Z,100946.01
2019-05-29T18:24:09.924Z,100947.46
2019-05-29T18:26:17.973Z,100944.88
2019-05-29T18:28:26.132Z,100950.53
2019-05-29T18:30:33.776Z,100952.19
2019-05-29T18:32:41.359Z,100960.20
2019-05-29T18:34:51.734Z,100957.50
2019-05-29T18:36:58.545Z,100961.66
2019-05-29T18:39:08.037Z,100965.75
2019-05-29T18:41:15.565Z,100973.98
2019-05-29T18:43:23.015Z,100973.48
2019-05-29T18:45:30.616Z,100977.03
2019-05-29T18:47:38.393Z,100976.80
2019-05-29T18:49:45.846Z,100980.09
2019-05-29T18:51:53.806Z,100985.62
2019-05-29T18:54:01.693Z,100998.95
2019-05-29T18:56:09.456Z,101005.59
2019-05-29T18:58:17.006Z,101008.78
2019-05-29T19:00:25.436Z,101001.16
2019-05-29T19:02:33.221Z,101008.89
2019-05-29T19:04:41.161Z,101006.09
2019-05-29T19:06:49.247Z,101023.80
2019-05-29T19:08:57.790Z,101019.68
2019-05-29T19:11:05.414Z,101032.20
2019-05-29T19:13:13.153Z,101032.92
2019-05-29T19:15:21.889Z,101035.67
2019-05-29T19:17:30.089Z,101038.55
2019-05-29T19:19:38.129Z,101050.15
2019-05-29T19:21:45.869Z,101045.57
2019-05-29T19:23:53.886Z,101049.10
2019-05-29T19:26:02.346Z,101043.07
2019-05-29T19:28:10.106Z,101059.36
2019-05-29T19:30:17.695Z,101066.47
2019-05-29T19:32:27.149Z,101067.96
2019-05-29T19:34:34.960Z,101066.23
2019-05-29T19:37:04.080Z,101072.54
2019-05-29T19:39:11.651Z,101075.18
2019-05-29T19:41:19.163Z,101076.67
2019-05-29T19:43:28.157Z,101073.14
2019-05-29T19:45:36.451Z,101078.06
2019-05-29T19:47:44.135Z,101081.25
2019-05-29T19:49:51.735Z,101087.38
2019-05-29T19:51:59.396Z,101084.52
2019-05-29T19:54:07.325Z,101087.33
2019-05-29T19:56:15.301Z,101085.70
2019-05-29T19:58:23.156Z,101094.55
2019-05-29T20:00:31.937Z,101093.53
2019-05-29T20:02:40.243Z,101100.15
2019-05-29T20:04:48.019Z,101103.20
2019-05-29T20:06:55.738Z,101101.58
2019-05-29T20:09:03.522Z,101107.17
2019-05-29T20:11:12.374Z,101114.02
2019-05-29T20:13:20.123Z,101113.62
2019-05-29T20:15:27.834Z,101104.30
2019-05-29T20:17:36.247Z,101102.17
2019-05-29T20:19:45.834Z,101104.36
2019-05-29T20:21:53.441Z,101102.02
2019-05-29T20:24:02.802Z,101115.18
2019-05-29T20:26:10.730Z,101115.32
2019-05-29T20:28:18.650Z,101112.45
2019-05-29T20:30:26.438Z,101123.09
2019-05-29T20:32:34.665Z,101125.98
2019-05-29T20:34:43.453Z,101123.63
2019-05-29T20:36:51.203Z,101123.50
2019-05-29T20:38:59.092Z,101126.16
2019-05-29T20:41:06.792Z,101133.89
2019-05-29T20:43:14.353Z,101138.59
2019-05-29T20:45:22.286Z,101144.12
2019-05-29T20:47:31.575Z,101144.19
2019-05-29T20:49:40.103Z,101146.48
2019-05-29T20:51:48.186Z,101146.20
2019-05-29T20:53:55.788Z,101145.07
2019-05-29T20:56:04.568Z,101147.52
2019-05-29T20:58:23.972Z,101155.45
2019-05-29T21:00:22.827Z,101156.14
2019-05-29T21:02:31.938Z,101151.08
2019-05-29T21:04:40.678Z,101153.84
2019-05-29T21:06:48.908Z,101158.97
2019-05-29T21:08:56.796Z,101162.45
2019-05-29T21:11:04.990Z,101164.86
2019-05-29T21:13:12.769Z,101165.37
2019-05-29T21:15:20.859Z,101159.73
2019-05-29T21:17:29.471Z,101168.34
2019-05-29T21:19:38.204Z,101177.00
2019-05-29T21:21:46.331Z,101184.04
2019-05-29T21:23:54.123Z,101185.39
2019-05-29T21:26:01.798Z,101189.82
2019-05-29T21:28:09.542Z,101190.47
2019-05-29T21:30:22.518Z,101199.64
2019-05-29T21:32:30.296Z,101198.85
2019-05-29T21:34:38.041Z,101195.08
2019-05-29T21:36:46.413Z,101198.31
2019-05-29T21:38:54.421Z,101202.67
2019-05-29T21:41:02.929Z,101206.13
2019-05-29T21:43:10.516Z,101210.46
2019-05-29T21:45:18.573Z,101204.58
2019-05-29T21:47:26.079Z,101216.92
2019-05-29T21:49:33.664Z,101218.23
2019-05-29T21:51:41.529Z,101218.23
2019-05-29T21:53:49.307Z,101219.16
2019-05-29T21:55:56.917Z,101224.20
2019-05-29T21:58:04.809Z,101224.29
2019-05-29T22:00:18.477Z,101219.53
2019-05-29T22:02:26.259Z,101224.70
2019-05-29T22:04:34.101Z,101231.73
2019-05-29T22:06:42.614Z,101230.61
2019-05-29T22:08:50.405Z,101239.73
2019-05-29T22:10:58.075Z,101236.63
2019-05-29T22:13:05.648Z,101239.66
2019-05-29T22:15:13.253Z,101237.30
2019-05-29T22:17:21.147Z,101234.55
2019-05-29T22:19:28.857Z,101237.65
2019-05-29T22:21:36.355Z,101240.84
2019-05-29T22:23:43.929Z,101236.25
2019-05-29T22:25:51.586Z,101235.36
2019-05-29T22:28:00.023Z,101228.39
2019-05-29T22:30:11.154Z,101230.50
2019-05-29T22:32:18.581Z,101235.50
2019-05-29T22:34:25.975Z,101238.62
2019-05-29T22:36:33.605Z,101245.33
2019-05-29T22:38:41.096Z,101242.69
2019-05-29T22:40:48.690Z,101246.75
2019-05-29T22:42:57.511Z,101252.41
2019-05-29T22:45:05.466Z,101259.03
2019-05-29T22:47:12.847Z,101253.23
2019-05-29T22:49:20.349Z,101252.22
2019-05-29T22:51:27.820Z,101258.28
2019-05-29T22:53:35.241Z,101260.99
2019-05-29T22:55:42.681Z,101261.34
2019-05-29T22:57:50.348Z,101261.69
2019-05-29T22:59:57.942Z,101256.87
2019-05-29T23:02:05.732Z,101251.38
2019-05-29T23:04:13.171Z,101258.53
2019-05-29T23:06:20.632Z,101255.66
2019-05-29T23:08:28.125Z,101256.59
2019-05-29T23:10:35.734Z,101262.47
2019-05-29T23:12:44.064Z,101258.70
2019-05-29T23:14:52.454Z,101266.91
2019-05-29T23:17:00.613Z,101273.48
2019-05-29T23:19:08.198Z,101274.22
2019-05-29T23:21:15.665Z,101269.84
2019-05-29T23:23:23.098Z,101274.68
2019-05-29T23:25:30.571Z,101277.58
2019-05-29T23:27:38.163Z,101276.47
2019-05-29T23:29:49.268Z,101286.27
2019-05-29T23:31:55.152Z,101290.79
2019-05-29T23:34:03.311Z,101283.87
2019-05-29T23:36:10.723Z,101286.19
2019-05-29T23:38:18.218Z,101277.59
2019-05-29T23:40:25.828Z,101280.14
2019-05-29T23:42:33.419Z,101279.61
2019-05-29T23:44:41.051Z,101281.63
2019-05-29T23:46:48.628Z,101280.87
2019-05-29T23:48:56.071Z,101286.79
2019-05-29T23:51:03.846Z,101287.45
2019-05-29T23:53:11.456Z,101297.27
2019-05-29T23:55:22.249Z,101310.06
2019-05-29T23:57:29.730Z,101304.44
2019-05-29T23:59:37.192Z,101308.91
